Currently 79°F in Riverside (Orangecrest), California, USA
79°F
79°F / 55°F
4 mph SW
0.00"
Sunday, May 28, 2017 1:22 PM PDT

Riverside (Orangecrest), California Weather Summary
Last 36 Hours

Temperature Winds Hourly Humidity Dewpoint
Time Report Norm Report Norm Max Gusts Precip. Rpt. Norm Rpt. Norm Pressure
1Sun 01:22 PM  78.5°F  75°F  4 mph SW  7 mph  10 mph  0.00"  28%  33%  41°F  42°F  30.01"
2Sun 01:19 PM  78.8°F  75°F  7 mph SW  7 mph  10 mph  ----  27%  32%  41°F  42°F  30.02"
Sun 01:00 PM  77.9°F  74°F  4 mph NW  6 mph  11 mph  0.00"  30%  34%  43°F  43°F  30.02"
Sun 12:00 PM  74.1°F  72°F  5 mph SW  5 mph  12 mph  0.00"  35%  37%  43°F  44°F  30.03"
Sun 11:00 AM  69.9°F  70°F  7 mph SW  6 mph  10 mph  0.00"  43%  42%  46°F  45°F  30.05"
Sun 10:00 AM  67.1°F  67°F  4 mph SW  3 mph  8 mph  0.00"  49%  47%  47°F  45°F  30.05"
Sun 09:00 AM  62.8°F  63°F  4 mph SW  4 mph  7 mph  0.00"  59%  55%  48°F  46°F  30.05"
Sun 08:00 AM  61.0°F  61°F  4 mph SW  4 mph  4 mph  0.00"  65%  60%  49°F  47°F  30.05"
Sun 07:00 AM  58.3°F  59°F  calm  2 mph  none  0.00"  69%  64%  48°F  47°F  30.04"
Sun 06:00 AM  55.0°F  58°F  calm  3 mph  2 mph  0.00"  76%  67%  47°F  47°F  30.03"
Sun 05:00 AM  55.6°F  58°F  2 mph W  2 mph  none  0.00"  75%  65%  47°F  46°F  30.02"
Sun 04:00 AM  55.4°F  59°F  calm  1 mph  4 mph  0.00"  74%  68%  47°F  48°F  30.02"
3Sun 03:15 AM  54.9°F  60°F  2 mph W  2 mph  4 mph  ----  76%  65%  47°F  47°F  30.03"
Sun 03:00 AM  54.9°F  59°F  calm  3 mph  5 mph  0.00"  77%  65%  47°F  47°F  30.03"
Sun 02:00 AM  55.8°F  59°F  calm  2 mph  4 mph  0.00"  75%  68%  48°F  48°F  30.04"
Sun 01:00 AM  56.5°F  59°F  2 mph W  4 mph  7 mph  0.00"  74%  67%  48°F  48°F  30.05"
Sun 12:00 AM  57.0°F  60°F  2 mph W  5 mph  9 mph  0.00"  72%  64%  48°F  48°F  30.06"
Sat 11:00 PM  58.5°F  61°F  2 mph SW  4 mph  9 mph  0.00"  68%  63%  48°F  48°F  30.06"
Sat 10:00 PM  60.3°F  63°F  4 mph W  3 mph  9 mph  0.00"  64%  55%  47°F  47°F  30.05"
Sat 09:00 PM  61.8°F  65°F  5 mph SW  4 mph  10 mph  0.00"  61%  54%  48°F  47°F  30.03"
Sat 08:00 PM  63.6°F  68°F  6 mph SW  5 mph  14 mph  0.00"  56%  47%  47°F  46°F  30.02"
Sat 07:00 PM  66.9°F  71°F  7 mph SW  7 mph  15 mph  0.00"  49%  40%  47°F  45°F  30.02"
Sat 06:00 PM  70.8°F  74°F  6 mph SW  8 mph  16 mph  0.00"  40%  35%  45°F  44°F  30.02"
Sat 05:00 PM  72.7°F  77°F  7 mph W  9 mph  16 mph  0.00"  37%  29%  44°F  41°F  30.02"
Sat 04:00 PM  74.1°F  77°F  5 mph W  7 mph  15 mph  0.00"  33%  28%  42°F  40°F  30.03"
Sat 03:00 PM  73.6°F  78°F  5 mph W  7 mph  13 mph  0.00"  33%  28%  41°F  41°F  30.03"
Sat 02:00 PM  71.6°F  78°F  4 mph W  8 mph  11 mph  0.00"  35%  30%  41°F  42°F  30.05"
Sat 01:00 PM  69.9°F  77°F  6 mph SW  6 mph  11 mph  0.00"  36%  30%  41°F  42°F  30.06"
Sat 12:00 PM  66.7°F  76°F  3 mph W  5 mph  11 mph  0.00"  46%  31%  44°F  42°F  30.08"
Sat 11:00 AM  63.6°F  74°F  7 mph SW  6 mph  10 mph  0.00"  50%  35%  44°F  44°F  30.08"
Sat 10:00 AM  62.9°F  70°F  2 mph SW  3 mph  8 mph  0.00"  54%  41%  45°F  45°F  30.08"
Sat 09:00 AM  58.7°F  67°F  3 mph SW  4 mph  7 mph  0.00"  62%  47%  45°F  45°F  30.08"
Sat 08:00 AM  55.9°F  64°F  3 mph SW  4 mph  10 mph  0.00"  72%  54%  46°F  47°F  30.06"
Sat 07:00 AM  54.0°F  62°F  4 mph SW  2 mph  8 mph  0.00"  76%  58%  46°F  46°F  30.05"
Sat 06:00 AM  53.3°F  60°F  5 mph W  2 mph  7 mph  0.00"  77%  60%  46°F  46°F  30.03"
Sat 05:00 AM  54.6°F  61°F  3 mph SW  1 mph  6 mph  0.00"  72%  58%  45°F  45°F  30.02"
Sat 04:00 AM  56.2°F  62°F  1 mph W  1 mph  4 mph  0.00"  69%  60%  46°F  47°F  30.02"
Sat 03:00 AM  56.5°F  62°F  1 mph W  3 mph  7 mph  0.00"  69%  59%  46°F  47°F  30.03"
Sat 02:00 AM  56.2°F  62°F  2 mph W  2 mph  8 mph  0.00"  70%  63%  46°F  48°F  30.04"

  1. Current weather data. No green row appears if the current weather data is also the high or low for the current day.
  2. High temperature for the current day.
  3. Low temperature for the current day.

The Riverside (Orangecrest), California weather pages are a service of WeatherCurrents.
Copyright ©Sun May 28 13:23:06 PDT 2017  WeatherCurrents. All rights reserved. - Submit questions and comments - Privacy Policy

This page automatically refreshes every 10 minutes.